createdAt,value
2022-10-24T00:00:54.505Z,999.42
2022-10-24T00:01:54.408Z,999.42
2022-10-24T00:02:54.442Z,999.45
2022-10-24T00:03:54.482Z,999.29
2022-10-24T00:04:54.364Z,999.42
2022-10-24T00:05:54.356Z,999.33
2022-10-24T00:06:54.360Z,999.29
2022-10-24T00:07:54.341Z,999.25
2022-10-24T00:08:54.334Z,999.23
2022-10-24T00:09:54.311Z,999.33
2022-10-24T00:10:54.306Z,999.32
2022-10-24T00:11:54.294Z,999.29
2022-10-24T00:12:54.286Z,999.23
2022-10-24T00:13:54.280Z,999.26
2022-10-24T00:14:54.283Z,999.26
2022-10-24T00:15:54.253Z,999.23
2022-10-24T00:16:54.250Z,999.23
2022-10-24T00:17:54.230Z,999.14
2022-10-24T00:18:54.219Z,999.19
2022-10-24T00:19:54.242Z,999.17
2022-10-24T00:20:54.188Z,999.18
2022-10-24T00:21:54.182Z,999.15
2022-10-24T00:22:54.181Z,999.11
2022-10-24T00:23:54.183Z,999.08
2022-10-24T00:24:54.169Z,999.27
2022-10-24T00:25:54.134Z,999.35
2022-10-24T00:26:54.125Z,999.36
2022-10-24T00:27:54.115Z,999.35
2022-10-24T00:28:54.167Z,999.27
2022-10-24T00:29:54.095Z,999.34
2022-10-24T00:30:54.077Z,999.29
2022-10-24T00:31:54.096Z,999.29
2022-10-24T00:32:54.054Z,999.28
2022-10-24T00:33:54.047Z,999.33
2022-10-24T00:34:54.049Z,999.24
2022-10-24T00:35:54.045Z,999.26
2022-10-24T00:36:54.020Z,999.17
2022-10-24T00:37:54.002Z,999.24
2022-10-24T00:38:53.993Z,999.18
2022-10-24T00:39:53.994Z,999.16
2022-10-24T00:40:53.993Z,999.21
2022-10-24T00:41:53.976Z,999.16
2022-10-24T00:42:53.944Z,999.18
2022-10-24T00:43:53.933Z,999.24
2022-10-24T00:44:53.949Z,999.11
2022-10-24T00:45:53.927Z,999.17
2022-10-24T00:46:53.905Z,999.15
2022-10-24T00:47:53.904Z,999.04
2022-10-24T00:48:53.880Z,999.03
2022-10-24T00:49:53.870Z,999.07
2022-10-24T00:50:53.879Z,998.96
2022-10-24T00:51:53.872Z,999.00
2022-10-24T00:52:53.848Z,998.98
2022-10-24T00:53:53.863Z,998.93
2022-10-24T00:54:53.813Z,999.00
2022-10-24T00:55:53.808Z,998.89
2022-10-24T00:56:53.797Z,998.94
2022-10-24T00:57:53.780Z,998.90
2022-10-24T00:58:53.778Z,998.86
2022-10-24T00:59:53.762Z,998.85
2022-10-24T01:00:53.805Z,998.87
2022-10-24T01:01:53.749Z,998.88
2022-10-24T01:02:53.742Z,998.78
2022-10-24T01:03:53.713Z,998.86
2022-10-24T01:04:53.700Z,998.81
2022-10-24T01:05:53.704Z,998.87
2022-10-24T01:06:53.697Z,998.84
2022-10-24T01:07:53.687Z,998.83
2022-10-24T01:08:53.661Z,998.77
2022-10-24T01:09:53.649Z,998.76
2022-10-24T01:10:53.650Z,998.71
2022-10-24T01:11:53.654Z,998.70
2022-10-24T01:12:53.611Z,998.63
2022-10-24T01:13:53.622Z,998.65
2022-10-24T01:14:53.618Z,998.74
2022-10-24T01:15:53.586Z,998.67
2022-10-24T01:16:53.588Z,998.62
2022-10-24T01:17:53.557Z,998.68
2022-10-24T01:19:53.537Z,998.59
2022-10-24T01:20:53.528Z,998.57
2022-10-24T01:21:53.533Z,998.63
2022-10-24T01:22:53.509Z,998.53
2022-10-24T01:23:53.510Z,998.53
2022-10-24T01:24:53.483Z,998.60
2022-10-24T01:25:53.475Z,998.45
2022-10-24T01:26:53.464Z,998.48
2022-10-24T01:27:53.445Z,998.47
2022-10-24T01:28:53.435Z,998.60
2022-10-24T01:29:53.431Z,998.52
2022-10-24T01:30:53.416Z,998.44
2022-10-24T01:31:53.407Z,998.55
2022-10-24T01:32:53.414Z,998.47
2022-10-24T01:33:53.395Z,998.52
2022-10-24T01:34:53.370Z,998.55
2022-10-24T01:35:53.374Z,998.52
2022-10-24T01:36:53.348Z,998.45
2022-10-24T01:37:53.347Z,998.45
2022-10-24T01:38:53.336Z,998.49
2022-10-24T01:39:53.332Z,998.41
2022-10-24T01:40:53.302Z,998.34
2022-10-24T01:41:53.293Z,998.43
2022-10-24T01:42:53.317Z,998.41
2022-10-24T01:44:53.254Z,998.42
2022-10-24T01:45:53.277Z,998.38
2022-10-24T01:46:53.238Z,998.33
2022-10-24T01:47:53.246Z,998.33
2022-10-24T01:48:53.238Z,998.33
2022-10-24T01:49:53.205Z,998.35
2022-10-24T01:50:53.214Z,998.28
2022-10-24T01:51:53.188Z,998.28
2022-10-24T01:52:53.183Z,998.21
2022-10-24T01:53:53.160Z,998.22
2022-10-24T01:54:53.152Z,998.28
2022-10-24T01:55:53.158Z,998.19
2022-10-24T01:56:53.141Z,998.21
2022-10-24T01:57:53.117Z,998.16
2022-10-24T01:58:53.110Z,998.16
2022-10-24T01:59:53.101Z,998.17
2022-10-24T02:00:53.109Z,998.09
2022-10-24T02:01:53.082Z,998.10
2022-10-24T02:02:53.080Z,998.18
2022-10-24T02:03:53.048Z,998.12
2022-10-24T02:04:53.067Z,998.10
2022-10-24T02:05:53.033Z,998.15
2022-10-24T02:06:53.012Z,998.11
2022-10-24T02:07:53.014Z,998.15
2022-10-24T02:08:53.063Z,998.11
2022-10-24T02:09:53.009Z,998.07
2022-10-24T02:10:52.977Z,998.08
2022-10-24T02:11:52.975Z,998.12
2022-10-24T02:12:52.954Z,998.10
2022-10-24T02:13:52.961Z,998.06
2022-10-24T02:14:52.935Z,998.00
2022-10-24T02:15:52.928Z,998.08
2022-10-24T02:16:52.905Z,998.03
2022-10-24T02:17:52.908Z,998.02
2022-10-24T02:18:52.893Z,997.99
2022-10-24T02:19:52.868Z,998.03
2022-10-24T02:20:52.867Z,998.05
2022-10-24T02:21:52.857Z,997.97
2022-10-24T02:22:52.828Z,997.96
2022-10-24T02:23:52.841Z,997.92
2022-10-24T02:24:52.835Z,997.90
2022-10-24T02:25:52.805Z,997.94
2022-10-24T02:26:52.821Z,997.91
2022-10-24T02:27:52.802Z,997.92
2022-10-24T02:28:52.792Z,997.90
2022-10-24T02:29:52.759Z,997.79
2022-10-24T02:30:52.773Z,997.78
2022-10-24T02:31:52.735Z,997.76
2022-10-24T02:32:52.721Z,997.76
2022-10-24T02:33:52.720Z,997.73
2022-10-24T02:34:52.701Z,997.77
2022-10-24T02:35:52.695Z,997.73
2022-10-24T02:36:52.684Z,997.85
2022-10-24T02:37:52.702Z,997.73
2022-10-24T02:38:52.662Z,997.74
2022-10-24T02:39:52.647Z,997.70
2022-10-24T02:40:52.651Z,997.72
2022-10-24T02:41:52.633Z,997.68
2022-10-24T02:42:52.612Z,997.71
2022-10-24T02:43:52.629Z,997.77
2022-10-24T02:44:52.608Z,997.68
2022-10-24T02:45:52.590Z,997.74
2022-10-24T02:46:52.589Z,997.80
2022-10-24T02:47:52.564Z,997.71
2022-10-24T02:48:52.567Z,997.69
2022-10-24T02:49:52.552Z,997.66
2022-10-24T02:50:52.542Z,997.76
2022-10-24T02:51:52.514Z,997.75
2022-10-24T02:52:52.499Z,997.77
2022-10-24T02:53:52.503Z,997.71
2022-10-24T02:54:52.475Z,997.68
2022-10-24T02:55:52.477Z,997.73
2022-10-24T02:56:52.456Z,997.78
2022-10-24T02:57:52.461Z,997.76
2022-10-24T02:58:52.433Z,997.73
2022-10-24T02:59:52.445Z,997.73
2022-10-24T03:00:52.475Z,997.81
2022-10-24T03:01:52.471Z,997.76
2022-10-24T03:02:52.392Z,997.70
2022-10-24T03:03:52.379Z,997.78
2022-10-24T03:04:52.373Z,997.74
2022-10-24T03:05:52.356Z,997.74
2022-10-24T03:06:52.383Z,997.76
2022-10-24T03:07:52.340Z,997.66
2022-10-24T03:08:52.323Z,997.68
2022-10-24T03:09:52.320Z,997.67
2022-10-24T03:10:52.324Z,997.65
2022-10-24T03:11:52.318Z,997.65
2022-10-24T03:12:52.292Z,997.70
2022-10-24T03:13:52.269Z,997.68
2022-10-24T03:14:52.300Z,997.79
2022-10-24T03:15:52.268Z,997.67
2022-10-24T03:16:52.233Z,997.70
2022-10-24T03:17:52.239Z,997.70
2022-10-24T03:18:52.228Z,997.67
2022-10-24T03:19:52.203Z,997.73
2022-10-24T03:20:52.193Z,997.65
2022-10-24T03:21:52.186Z,997.68
2022-10-24T03:22:52.205Z,997.70
2022-10-24T03:23:52.159Z,997.72
2022-10-24T03:24:55.658Z,997.75
2022-10-24T03:25:52.140Z,997.72
2022-10-24T03:26:52.124Z,997.70
2022-10-24T03:27:52.127Z,997.71
2022-10-24T03:28:52.109Z,997.77
2022-10-24T03:29:52.093Z,997.77
2022-10-24T03:30:52.081Z,997.65
2022-10-24T03:31:52.102Z,997.70
2022-10-24T03:32:52.069Z,997.76
2022-10-24T03:33:52.059Z,997.68
2022-10-24T03:34:52.033Z,997.70
2022-10-24T03:35:52.030Z,997.61
2022-10-24T03:36:52.033Z,997.65
2022-10-24T03:37:52.004Z,997.68
2022-10-24T03:38:52.024Z,997.69
2022-10-24T03:39:51.991Z,997.70
2022-10-24T03:40:51.968Z,997.67
2022-10-24T03:41:51.977Z,997.70
2022-10-24T03:42:51.959Z,997.68
2022-10-24T03:43:51.945Z,997.70
2022-10-24T03:44:51.927Z,997.65
2022-10-24T03:45:51.911Z,997.71
2022-10-24T03:46:51.912Z,997.65
2022-10-24T03:47:51.907Z,997.64
2022-10-24T03:48:51.982Z,997.69
2022-10-24T03:49:51.867Z,997.73
2022-10-24T03:50:51.864Z,997.65
2022-10-24T03:51:51.848Z,997.67
2022-10-24T03:52:51.845Z,997.68
2022-10-24T03:53:51.840Z,997.57
2022-10-24T03:54:51.830Z,997.54
2022-10-24T03:55:51.811Z,997.63
2022-10-24T03:56:51.802Z,997.63
2022-10-24T03:57:51.782Z,997.64
2022-10-24T03:58:51.774Z,997.65
2022-10-24T03:59:51.780Z,997.58
2022-10-24T04:00:51.791Z,997.58
2022-10-24T04:01:51.766Z,997.62
2022-10-24T04:02:51.736Z,997.60
2022-10-24T04:03:51.729Z,997.58
2022-10-24T04:04:51.716Z,997.65
2022-10-24T04:05:51.707Z,997.63
2022-10-24T04:06:51.682Z,997.63
2022-10-24T04:07:51.664Z,997.70
2022-10-24T04:08:51.660Z,997.68
2022-10-24T04:09:51.658Z,997.73
2022-10-24T04:10:51.645Z,997.74
2022-10-24T04:11:51.623Z,997.81
2022-10-24T04:12:51.613Z,997.72
2022-10-24T04:13:51.656Z,997.67
2022-10-24T04:14:51.616Z,997.79
2022-10-24T04:15:51.577Z,997.79
2022-10-24T04:16:51.571Z,997.83
2022-10-24T04:17:51.556Z,997.81
2022-10-24T04:18:51.600Z,997.79
2022-10-24T04:19:51.569Z,997.76
2022-10-24T04:20:51.531Z,997.82
2022-10-24T04:21:51.513Z,997.73
2022-10-24T04:22:51.511Z,997.81
2022-10-24T04:23:51.494Z,997.84
2022-10-24T04:24:51.509Z,997.84
2022-10-24T04:25:51.484Z,997.77
2022-10-24T04:26:51.462Z,997.83
2022-10-24T04:27:51.442Z,997.74
2022-10-24T04:28:51.442Z,997.81
2022-10-24T04:29:51.426Z,997.80
2022-10-24T04:30:51.429Z,997.79
2022-10-24T04:31:51.422Z,997.82
2022-10-24T04:32:51.392Z,997.80
2022-10-24T04:33:51.376Z,997.83
2022-10-24T04:34:51.376Z,997.78
2022-10-24T04:35:51.382Z,997.83
2022-10-24T04:36:51.347Z,997.76
2022-10-24T04:37:51.337Z,997.74
2022-10-24T04:38:51.374Z,997.81
2022-10-24T04:39:51.317Z,997.85
2022-10-24T04:40:51.303Z,997.85
2022-10-24T04:41:51.289Z,997.90
2022-10-24T04:42:51.278Z,997.88
2022-10-24T04:43:51.278Z,997.80
2022-10-24T04:44:51.277Z,997.83
2022-10-24T04:45:51.256Z,997.84
2022-10-24T04:46:51.542Z,997.83
2022-10-24T04:47:51.231Z,997.77
2022-10-24T04:48:51.223Z,997.90
2022-10-24T04:49:51.240Z,997.84
2022-10-24T04:50:51.205Z,997.81
2022-10-24T04:51:51.214Z,997.75
2022-10-24T04:52:51.186Z,997.74
2022-10-24T04:53:51.165Z,997.80
2022-10-24T04:54:51.143Z,997.73
2022-10-24T04:55:51.139Z,997.73
2022-10-24T04:56:51.127Z,997.73
2022-10-24T04:57:51.107Z,997.71
2022-10-24T04:58:51.119Z,997.74
2022-10-24T04:59:51.103Z,997.74
2022-10-24T05:00:51.081Z,997.67
2022-10-24T05:01:51.278Z,997.70
2022-10-24T05:02:54.055Z,997.70
2022-10-24T05:03:52.114Z,997.66
2022-10-24T05:04:51.073Z,997.70
2022-10-24T05:05:51.023Z,997.69
2022-10-24T05:06:51.015Z,997.73
2022-10-24T05:07:51.053Z,997.77
2022-10-24T05:08:51.014Z,997.75
2022-10-24T05:09:50.977Z,997.72
2022-10-24T05:10:50.973Z,997.73
2022-10-24T05:11:50.962Z,997.75
2022-10-24T05:12:50.964Z,997.76
2022-10-24T05:13:50.936Z,997.74
2022-10-24T05:14:50.935Z,997.73
2022-10-24T05:15:50.947Z,997.78
2022-10-24T05:16:50.904Z,997.81
2022-10-24T05:17:50.896Z,997.80
2022-10-24T05:18:50.895Z,997.79
2022-10-24T05:19:50.870Z,997.88
2022-10-24T05:20:50.873Z,997.83
2022-10-24T05:21:50.871Z,997.78
2022-10-24T05:22:50.838Z,997.77
2022-10-24T05:23:50.843Z,997.83
2022-10-24T05:24:50.849Z,997.78
2022-10-24T05:25:50.805Z,997.81
2022-10-24T05:26:50.802Z,997.86
2022-10-24T05:27:50.781Z,997.87
2022-10-24T05:28:52.612Z,997.84
2022-10-24T05:29:50.790Z,997.88
2022-10-24T05:30:50.802Z,997.87
2022-10-24T05:31:50.775Z,997.94
2022-10-24T05:32:50.731Z,997.88
2022-10-24T05:33:50.729Z,997.94
2022-10-24T05:34:50.716Z,997.93
2022-10-24T05:35:50.723Z,997.98
2022-10-24T05:36:50.680Z,997.93
2022-10-24T05:37:50.684Z,998.00
2022-10-24T05:38:50.667Z,998.00
2022-10-24T05:39:50.670Z,997.98
2022-10-24T05:40:50.664Z,997.97
2022-10-24T05:41:54.471Z,997.98
2022-10-24T05:42:50.613Z,998.00
2022-10-24T05:43:50.611Z,997.95
2022-10-24T05:44:50.625Z,997.95
2022-10-24T05:46:50.592Z,997.97
2022-10-24T05:47:50.569Z,998.12
2022-10-24T05:48:50.551Z,997.98
2022-10-24T05:49:50.535Z,997.97
2022-10-24T05:50:50.548Z,997.96
2022-10-24T05:51:50.528Z,998.02
2022-10-24T05:52:50.533Z,997.96
2022-10-24T05:53:50.490Z,997.97
2022-10-24T05:54:55.774Z,998.11
2022-10-24T05:55:51.509Z,998.02
2022-10-24T05:56:50.488Z,998.09
2022-10-24T05:57:50.468Z,998.06
2022-10-24T05:58:50.452Z,998.07
2022-10-24T05:59:50.441Z,998.00
2022-10-24T06:00:53.828Z,998.09
2022-10-24T06:01:50.554Z,998.10
2022-10-24T06:02:50.412Z,998.15
2022-10-24T06:03:50.393Z,998.13
2022-10-24T06:04:50.375Z,998.16
2022-10-24T06:05:50.358Z,998.14
2022-10-24T06:06:50.364Z,998.16
2022-10-24T06:07:50.344Z,998.12
2022-10-24T06:08:50.354Z,998.15
2022-10-24T06:09:50.315Z,998.14
2022-10-24T06:10:50.310Z,998.14
2022-10-24T06:11:50.322Z,998.17
2022-10-24T06:12:50.295Z,998.18
2022-10-24T06:13:50.272Z,998.19
2022-10-24T06:14:50.313Z,998.18
2022-10-24T06:15:50.285Z,998.16
2022-10-24T06:16:50.282Z,998.17
2022-10-24T06:17:50.237Z,998.10
2022-10-24T06:18:50.219Z,998.20
2022-10-24T06:19:50.212Z,998.20
2022-10-24T06:20:52.821Z,998.20
2022-10-24T06:21:51.202Z,998.21
2022-10-24T06:22:50.173Z,998.19
2022-10-24T06:23:50.157Z,998.21
2022-10-24T06:24:50.165Z,998.25
2022-10-24T06:25:50.171Z,998.22
2022-10-24T06:26:50.130Z,998.21
2022-10-24T06:27:50.144Z,998.16
2022-10-24T06:28:50.116Z,998.23
2022-10-24T06:29:50.150Z,998.17
2022-10-24T06:30:50.113Z,998.22
2022-10-24T06:31:50.084Z,998.25
2022-10-24T06:32:50.631Z,998.24
2022-10-24T06:33:50.051Z,998.31
2022-10-24T06:34:50.042Z,998.29
2022-10-24T06:35:50.025Z,998.28
2022-10-24T06:36:50.018Z,998.30
2022-10-24T06:37:50.388Z,998.23
2022-10-24T06:38:50.007Z,998.36
2022-10-24T06:39:49.988Z,998.33
2022-10-24T06:40:49.991Z,998.31
2022-10-24T06:41:49.993Z,998.26
2022-10-24T06:42:49.976Z,998.31
2022-10-24T06:43:49.965Z,998.36
2022-10-24T06:44:50.053Z,998.29
2022-10-24T06:45:49.921Z,998.35
2022-10-24T06:46:49.921Z,998.41
2022-10-24T06:47:52.021Z,998.35
2022-10-24T06:48:49.945Z,998.37
2022-10-24T06:49:49.903Z,998.32
2022-10-24T06:50:49.888Z,998.38
2022-10-24T06:51:49.859Z,998.40
2022-10-24T06:52:49.869Z,998.41
2022-10-24T06:53:49.849Z,998.40
2022-10-24T06:54:49.829Z,998.40
2022-10-24T06:55:49.826Z,998.43
2022-10-24T06:56:49.795Z,998.41
2022-10-24T06:57:49.782Z,998.39
2022-10-24T06:58:49.789Z,998.41
2022-10-24T06:59:49.784Z,998.45
2022-10-24T07:00:49.820Z,998.42
2022-10-24T07:01:49.945Z,998.52
2022-10-24T07:02:49.740Z,998.51
2022-10-24T07:03:49.737Z,998.44
2022-10-24T07:04:49.721Z,998.43
2022-10-24T07:05:49.703Z,998.42
2022-10-24T07:06:49.706Z,998.46
2022-10-24T07:07:49.687Z,998.41
2022-10-24T07:08:49.679Z,998.43
2022-10-24T07:09:49.656Z,998.36
2022-10-24T07:10:49.663Z,998.38
2022-10-24T07:11:49.631Z,998.46
2022-10-24T07:12:49.653Z,998.46
2022-10-24T07:13:49.606Z,998.54
2022-10-24T07:14:49.599Z,998.58
2022-10-24T07:15:49.604Z,998.55
2022-10-24T07:16:49.578Z,998.53
2022-10-24T07:17:49.574Z,998.52
2022-10-24T07:18:49.568Z,998.65
2022-10-24T07:19:49.548Z,998.60
2022-10-24T07:20:49.536Z,998.52
2022-10-24T07:21:49.516Z,998.46
2022-10-24T07:22:49.535Z,998.49
2022-10-24T07:23:49.508Z,998.52
2022-10-24T07:24:49.500Z,998.52
2022-10-24T07:25:49.472Z,998.41
2022-10-24T07:26:49.466Z,998.47
2022-10-24T07:27:49.476Z,998.51
2022-10-24T07:28:49.502Z,998.49
2022-10-24T07:29:49.425Z,998.51
2022-10-24T07:30:49.434Z,998.48
2022-10-24T07:31:49.429Z,998.47
2022-10-24T07:32:49.397Z,998.54
2022-10-24T07:33:49.417Z,998.54
2022-10-24T07:34:49.389Z,998.55
2022-10-24T07:35:49.363Z,998.52
2022-10-24T07:36:49.367Z,998.60
2022-10-24T07:37:49.356Z,998.60
2022-10-24T07:38:49.337Z,998.47
2022-10-24T07:39:49.337Z,998.52
2022-10-24T07:40:49.316Z,998.49
2022-10-24T07:41:49.296Z,998.50
2022-10-24T07:42:49.291Z,998.53
2022-10-24T07:43:49.272Z,998.53
2022-10-24T07:44:49.269Z,998.55
2022-10-24T07:45:51.799Z,998.56
2022-10-24T07:46:49.263Z,998.60
2022-10-24T07:47:49.247Z,998.55
2022-10-24T07:48:49.222Z,998.58
2022-10-24T07:49:49.209Z,998.54
2022-10-24T07:50:49.209Z,998.56
2022-10-24T07:51:49.185Z,998.64
2022-10-24T07:52:49.184Z,998.65
2022-10-24T07:53:49.166Z,998.64
2022-10-24T07:54:49.164Z,998.72
2022-10-24T07:55:49.150Z,998.70
2022-10-24T07:56:49.139Z,998.78
2022-10-24T07:57:49.121Z,998.75
2022-10-24T07:58:49.125Z,998.85
2022-10-24T07:59:49.096Z,998.67
2022-10-24T08:00:49.089Z,998.81
2022-10-24T08:01:49.140Z,998.86
2022-10-24T08:03:49.076Z,998.87
2022-10-24T08:04:49.036Z,998.84
2022-10-24T08:05:49.051Z,998.81
2022-10-24T08:06:49.033Z,998.88
2022-10-24T08:07:55.964Z,998.90
2022-10-24T08:08:49.991Z,998.86
2022-10-24T08:09:48.990Z,998.78
2022-10-24T08:10:49.021Z,998.64
2022-10-24T08:11:48.985Z,998.36
2022-10-24T08:12:48.961Z,998.53
2022-10-24T08:13:48.939Z,998.50
2022-10-24T08:14:48.932Z,998.58
2022-10-24T08:15:48.928Z,998.63
2022-10-24T08:16:48.910Z,998.64
2022-10-24T08:17:48.906Z,998.57
2022-10-24T08:18:48.885Z,998.59
2022-10-24T08:19:48.903Z,998.60
2022-10-24T08:20:48.866Z,998.62
2022-10-24T08:21:48.889Z,998.61
2022-10-24T08:22:48.854Z,998.63
2022-10-24T08:23:48.834Z,998.63
2022-10-24T08:24:48.818Z,998.64
2022-10-24T08:25:48.812Z,998.74
2022-10-24T08:26:48.810Z,998.67
2022-10-24T08:27:48.791Z,998.63
2022-10-24T08:28:48.775Z,998.60
2022-10-24T08:29:48.767Z,998.69
2022-10-24T08:30:48.751Z,998.62
2022-10-24T08:31:48.754Z,998.66
2022-10-24T08:32:48.780Z,998.71
2022-10-24T08:33:48.757Z,998.64
2022-10-24T08:34:48.707Z,998.65
2022-10-24T08:35:48.724Z,998.71
2022-10-24T08:36:48.721Z,998.67
2022-10-24T08:37:48.681Z,998.71
2022-10-24T08:38:48.676Z,998.69
2022-10-24T08:39:48.660Z,998.69
2022-10-24T08:40:48.644Z,998.82
2022-10-24T08:41:48.635Z,998.83
2022-10-24T08:42:49.046Z,998.72
2022-10-24T08:43:48.622Z,998.70
2022-10-24T08:44:48.599Z,998.72
2022-10-24T08:45:48.611Z,998.72
2022-10-24T08:46:48.574Z,998.80
2022-10-24T08:47:48.574Z,998.77
2022-10-24T08:48:48.558Z,998.67
2022-10-24T08:49:50.508Z,998.77
2022-10-24T08:50:48.531Z,998.74
2022-10-24T08:51:48.548Z,998.79
2022-10-24T08:52:48.511Z,999.00
2022-10-24T08:53:48.537Z,998.81
2022-10-24T08:54:48.484Z,998.86
2022-10-24T08:55:50.000Z,998.80
2022-10-24T08:56:48.479Z,998.71
2022-10-24T08:57:48.479Z,998.78
2022-10-24T08:58:48.440Z,998.82
2022-10-24T08:59:48.437Z,998.80
2022-10-24T09:00:48.426Z,998.78
2022-10-24T09:01:48.534Z,998.64
2022-10-24T09:02:49.022Z,998.79
2022-10-24T09:03:57.448Z,998.86
2022-10-24T09:04:49.371Z,998.76
2022-10-24T09:05:48.363Z,998.86
2022-10-24T09:06:48.361Z,998.90
2022-10-24T09:07:48.541Z,998.86
2022-10-24T09:08:48.333Z,998.79
2022-10-24T09:09:48.338Z,998.82
2022-10-24T09:10:48.307Z,998.93
2022-10-24T09:11:48.299Z,998.91
2022-10-24T09:12:48.298Z,998.70
2022-10-24T09:13:48.276Z,998.76
2022-10-24T09:14:48.361Z,998.78
2022-10-24T09:15:48.260Z,998.83
2022-10-24T09:16:48.240Z,998.89
2022-10-24T09:17:48.498Z,998.76
2022-10-24T09:18:48.889Z,998.84
2022-10-24T09:19:48.276Z,998.80
2022-10-24T09:20:48.208Z,998.79
2022-10-24T09:21:48.183Z,998.84
2022-10-24T09:22:48.172Z,998.83
2022-10-24T09:23:48.184Z,998.81
2022-10-24T09:24:48.173Z,998.79
2022-10-24T09:25:48.139Z,998.87
2022-10-24T09:26:48.127Z,998.85
2022-10-24T09:27:48.391Z,998.98
2022-10-24T09:28:48.122Z,998.87
2022-10-24T09:29:48.100Z,998.92
2022-10-24T09:30:48.087Z,998.97
2022-10-24T09:31:48.074Z,998.88
2022-10-24T09:32:48.076Z,999.00
2022-10-24T09:33:48.053Z,998.99
2022-10-24T09:34:48.055Z,999.16
2022-10-24T09:35:48.054Z,999.04
2022-10-24T09:36:48.029Z,999.02
2022-10-24T09:37:48.105Z,999.08
2022-10-24T09:38:48.059Z,999.07
2022-10-24T09:39:48.010Z,999.07
2022-10-24T09:40:48.004Z,999.10
2022-10-24T09:41:47.961Z,999.10
2022-10-24T09:42:47.947Z,999.21
2022-10-24T09:43:47.944Z,999.16
2022-10-24T09:44:47.925Z,999.16
2022-10-24T09:45:47.925Z,999.13
2022-10-24T09:46:47.911Z,999.11
2022-10-24T09:47:48.059Z,999.23
2022-10-24T09:48:47.889Z,999.18
2022-10-24T09:49:47.870Z,999.26
2022-10-24T09:50:47.856Z,999.24
2022-10-24T09:51:47.856Z,999.26
2022-10-24T09:52:47.834Z,999.27
2022-10-24T09:53:47.863Z,999.31
2022-10-24T09:54:47.810Z,999.17
2022-10-24T09:55:47.832Z,999.28
2022-10-24T09:56:51.037Z,999.28
2022-10-24T09:57:49.056Z,999.24
2022-10-24T09:58:47.768Z,999.33
2022-10-24T09:59:47.766Z,999.42
2022-10-24T10:00:47.747Z,999.39
2022-10-24T10:01:47.891Z,999.33
2022-10-24T10:02:47.725Z,999.35
2022-10-24T10:03:47.721Z,999.43
2022-10-24T10:04:47.730Z,999.32
2022-10-24T10:05:47.693Z,999.37
2022-10-24T10:06:47.690Z,999.36
2022-10-24T10:07:47.880Z,999.29
2022-10-24T10:08:47.656Z,999.37
2022-10-24T10:09:48.980Z,999.39
2022-10-24T10:10:47.635Z,999.36
2022-10-24T10:12:00.778Z,999.34
2022-10-24T10:12:48.639Z,999.44
2022-10-24T10:13:47.615Z,999.44
2022-10-24T10:14:47.588Z,999.45
2022-10-24T10:15:47.592Z,999.49
2022-10-24T10:16:47.690Z,999.51
2022-10-24T10:17:47.803Z,999.58
2022-10-24T10:18:47.542Z,999.47
2022-10-24T10:19:47.552Z,999.43
2022-10-24T10:20:47.519Z,999.46
2022-10-24T10:21:47.513Z,999.50
2022-10-24T10:22:47.534Z,999.50
2022-10-24T10:23:47.496Z,999.47
2022-10-24T10:24:47.483Z,999.51
2022-10-24T10:25:47.469Z,999.53
2022-10-24T10:26:47.466Z,999.48
2022-10-24T10:27:47.702Z,999.56
2022-10-24T10:28:47.449Z,999.53
2022-10-24T10:29:47.435Z,999.57
2022-10-24T10:30:47.409Z,999.63
2022-10-24T10:31:47.429Z,999.50
2022-10-24T10:32:47.423Z,999.48
2022-10-24T10:33:47.385Z,999.49
2022-10-24T10:34:47.373Z,999.60
2022-10-24T10:35:47.386Z,999.56
2022-10-24T10:36:47.346Z,999.66
2022-10-24T10:37:47.665Z,999.59
2022-10-24T10:38:47.350Z,999.56
2022-10-24T10:39:47.310Z,999.76
2022-10-24T10:40:47.313Z,999.54
2022-10-24T10:41:47.325Z,999.59
2022-10-24T10:42:47.633Z,999.41
2022-10-24T10:43:47.292Z,999.49
2022-10-24T10:44:47.261Z,999.72
2022-10-24T10:45:47.251Z,999.70
2022-10-24T10:46:47.242Z,999.62
2022-10-24T10:47:47.243Z,999.70
2022-10-24T10:48:47.238Z,999.67
2022-10-24T10:49:47.203Z,999.74
2022-10-24T10:50:47.184Z,999.74
2022-10-24T10:51:47.178Z,999.75
2022-10-24T10:52:47.587Z,999.73
2022-10-24T10:53:47.162Z,999.66
2022-10-24T10:54:47.185Z,999.81
2022-10-24T10:55:47.140Z,999.83
2022-10-24T10:56:47.118Z,999.83
2022-10-24T10:57:47.116Z,999.76
2022-10-24T10:58:47.104Z,999.88
2022-10-24T10:59:47.112Z,999.83
2022-10-24T11:00:47.071Z,999.98
2022-10-24T11:01:47.257Z,999.89
2022-10-24T11:02:49.464Z,999.80
2022-10-24T11:03:48.053Z,999.82
2022-10-24T11:04:47.039Z,999.89
2022-10-24T11:05:47.025Z,999.92
2022-10-24T11:06:47.059Z,999.82
2022-10-24T11:07:47.265Z,999.90
2022-10-24T11:08:47.001Z,999.94
2022-10-24T11:09:47.004Z,999.91
2022-10-24T11:10:47.013Z,999.96
2022-10-24T11:11:46.949Z,999.90
2022-10-24T11:12:46.944Z,999.88
2022-10-24T11:13:46.934Z,1000.08
2022-10-24T11:14:46.937Z,999.97
2022-10-24T11:15:46.935Z,1000.00
2022-10-24T11:16:46.892Z,1000.02
2022-10-24T11:17:47.180Z,999.92
2022-10-24T11:18:46.903Z,999.99
2022-10-24T11:19:46.872Z,1000.05
2022-10-24T11:20:46.913Z,999.97
2022-10-24T11:21:46.849Z,1000.08
2022-10-24T11:22:46.862Z,1000.09
2022-10-24T11:23:46.825Z,1000.07
2022-10-24T11:24:46.810Z,1000.01
2022-10-24T11:25:46.794Z,999.84
2022-10-24T11:26:46.785Z,999.99
2022-10-24T11:27:47.079Z,999.99
2022-10-24T11:28:46.798Z,1000.03
2022-10-24T11:29:46.775Z,1000.15
2022-10-24T11:30:46.803Z,1000.12
2022-10-24T11:31:46.751Z,1000.08
2022-10-24T11:32:47.093Z,1000.01
2022-10-24T11:33:46.707Z,1000.04
2022-10-24T11:34:46.708Z,1000.04
2022-10-24T11:35:46.690Z,1000.06
2022-10-24T11:36:46.685Z,999.99
2022-10-24T11:37:46.663Z,999.97
2022-10-24T11:38:46.711Z,1000.11
2022-10-24T11:39:46.641Z,1000.13
2022-10-24T11:40:46.735Z,1000.12
2022-10-24T11:41:46.617Z,1000.13
2022-10-24T11:42:46.846Z,1000.24
2022-10-24T11:43:46.607Z,1000.20
2022-10-24T11:44:46.587Z,1000.16
2022-10-24T11:45:46.606Z,1000.12
2022-10-24T11:46:46.563Z,1000.14
2022-10-24T11:47:46.569Z,1000.15
2022-10-24T11:49:46.535Z,1000.18
2022-10-24T11:50:46.610Z,1000.16
2022-10-24T11:51:46.522Z,1000.09
2022-10-24T11:52:46.856Z,1000.12
2022-10-24T11:53:46.483Z,1000.07
2022-10-24T11:54:46.477Z,1000.11
2022-10-24T11:55:46.467Z,1000.12
2022-10-24T11:56:46.448Z,1000.17
2022-10-24T11:57:46.701Z,1000.20
2022-10-24T11:58:46.443Z,1000.21
2022-10-24T11:59:46.411Z,1000.20
2022-10-24T12:00:46.461Z,1000.25
2022-10-24T12:01:46.396Z,1000.24
2022-10-24T12:02:46.457Z,1000.29
2022-10-24T12:03:46.409Z,1000.23
2022-10-24T12:04:46.354Z,1000.28
2022-10-24T12:05:46.364Z,1000.22
2022-10-24T12:06:46.336Z,1000.19
2022-10-24T12:07:46.585Z,1000.19
2022-10-24T12:08:46.309Z,1000.25
2022-10-24T12:09:46.317Z,1000.29
2022-10-24T12:10:46.345Z,1000.30
2022-10-24T12:11:46.280Z,1000.25
2022-10-24T12:12:46.269Z,1000.35
2022-10-24T12:13:46.259Z,1000.33
2022-10-24T12:14:46.247Z,1000.26
2022-10-24T12:15:46.273Z,1000.34
2022-10-24T12:16:46.234Z,1000.37
2022-10-24T12:17:46.672Z,1000.29
2022-10-24T12:18:46.225Z,1000.41
2022-10-24T12:19:46.210Z,1000.47
2022-10-24T12:20:46.225Z,1000.31
2022-10-24T12:21:46.166Z,1000.51
2022-10-24T12:22:46.399Z,1000.48
2022-10-24T12:23:46.142Z,1000.59
2022-10-24T12:24:46.167Z,1000.51
2022-10-24T12:25:48.086Z,1000.51
2022-10-24T12:26:46.130Z,1000.46
2022-10-24T12:27:46.097Z,1000.55
2022-10-24T12:28:46.089Z,1000.54
2022-10-24T12:29:46.075Z,1000.50
2022-10-24T12:30:46.208Z,1000.52
2022-10-24T12:31:46.055Z,1000.46